Time;durP1;ratioP1;P1;durP2;ratioP2;P2;SDS_P1;SDS_P2;PMS_P1;PMS_P2;Temp;Humidity;BMP_temperature;BMP_pressure;BME280_temperature;BME280_humidity;BME280_pressure;Samples;Min_cycle;Max_cycle;Signal;HPM_P1;HPM_P2
2023/02/06 00:00:06;;;;;;;13.00;8.38;;;;;;;-1.49;71.73;146960.00;5043906;28;20021;-64
2023/02/06 00:02:32;;;;;;;13.65;9.50;;;;;;;-1.51;71.34;146956.19;5043574;28;20071;-65
2023/02/06 00:04:57;;;;;;;13.43;8.60;;;;;;;-1.47;70.76;146966.34;5043593;28;20290;-63
2023/02/06 00:07:23;;;;;;;11.43;8.30;;;;;;;-1.46;71.34;146967.59;5043449;28;20268;-66
2023/02/06 00:09:48;;;;;;;12.93;9.55;;;;;;;-1.60;71.66;146933.31;5043651;28;20100;-65
2023/02/06 00:12:14;;;;;;;13.63;9.13;;;;;;;-1.73;70.79;146901.59;5050582;28;20032;-64
2023/02/06 00:14:39;;;;;;;13.07;9.15;;;;;;;-1.51;72.52;146954.91;5055268;28;20037;-64
2023/02/06 00:17:05;;;;;;;12.52;8.85;;;;;;;-1.48;71.88;146963.81;5043179;28;20034;-63
2023/02/06 00:19:31;;;;;;;12.65;8.65;;;;;;;-1.46;71.19;146967.59;5043259;28;20230;-64
2023/02/06 00:21:56;;;;;;;12.57;8.52;;;;;;;-1.52;71.35;146952.38;5043434;28;20029;-67
2023/02/06 00:24:22;;;;;;;13.82;9.18;;;;;;;-1.54;71.57;146947.28;5043577;28;20029;-65
2023/02/06 00:26:47;;;;;;;13.32;8.38;;;;;;;-1.46;71.18;146968.88;5043281;28;20029;-65
2023/02/06 00:29:13;;;;;;;12.23;8.27;;;;;;;-1.57;71.44;146942.22;5042945;28;20056;-64
2023/02/06 00:31:38;;;;;;;12.25;8.15;;;;;;;-1.53;70.79;146949.84;5042382;28;20021;-65
2023/02/06 00:34:04;;;;;;;11.73;8.32;;;;;;;-1.43;70.09;146975.22;5042382;28;20029;-64
2023/02/06 00:36:29;;;;;;;12.70;8.68;;;;;;;-1.38;71.16;146987.94;5042412;28;20032;-64
2023/02/06 00:38:55;;;;;;;11.07;7.68;;;;;;;-1.61;69.39;146932.06;5024933;28;20071;-64
2023/02/06 00:41:20;;;;;;;11.13;8.05;;;;;;;-1.54;70.14;146947.28;5043008;28;20036;-64
2023/02/06 00:43:46;;;;;;;12.95;8.50;;;;;;;-1.56;70.29;146943.47;5043357;28;20221;-65
2023/02/06 00:46:11;;;;;;;10.60;8.18;;;;;;;-1.60;69.78;146934.56;5042698;28;20398;-64
2023/02/06 00:48:37;;;;;;;12.73;8.25;;;;;;;-1.58;70.04;146938.44;5043069;28;20499;-65
2023/02/06 00:51:03;;;;;;;12.07;7.97;;;;;;;-1.77;69.61;146891.41;5024851;28;20037;-65
2023/02/06 00:53:28;;;;;;;12.40;8.68;;;;;;;-1.77;70.99;146892.72;5043506;28;20048;-65
2023/02/06 00:55:54;;;;;;;11.95;8.32;;;;;;;-1.79;70.08;146886.38;5042919;28;20221;-64
2023/02/06 00:58:20;;;;;;;10.57;7.30;;;;;;;-1.80;70.32;146883.81;5042687;28;20022;-66
2023/02/06 01:00:45;;;;;;;11.30;7.90;;;;;;;-1.84;70.11;146873.66;5042744;28;20022;-65
2023/02/06 01:03:11;;;;;;;10.95;7.68;;;;;;;-1.81;70.76;146881.25;5042459;28;20033;-65
2023/02/06 01:05:36;;;;;;;9.85;6.95;;;;;;;-1.83;71.36;146877.47;5042599;28;20028;-64
2023/02/06 01:08:02;;;;;;;10.25;7.30;;;;;;;-1.74;70.96;146899.03;5042575;28;20075;-64
2023/02/06 01:10:28;;;;;;;11.25;7.95;;;;;;;-1.70;70.63;146909.19;5058289;28;20029;-65
2023/02/06 01:12:53;;;;;;;11.50;8.07;;;;;;;-1.76;70.17;146893.97;5042411;28;20029;-65
2023/02/06 01:15:19;;;;;;;10.98;7.68;;;;;;;-1.73;71.35;146902.84;5042262;28;20038;-66
2023/02/06 01:17:44;;;;;;;12.27;8.48;;;;;;;-1.67;70.85;146916.81;5041797;28;20041;-64
2023/02/06 01:20:12;;;;;;;10.90;7.85;;;;;;;-1.70;70.78;146909.19;5042593;28;20333;-64
2023/02/06 01:22:38;;;;;;;9.98;7.78;;;;;;;-1.72;70.33;146904.13;5042103;28;20029;-65
2023/02/06 01:25:04;;;;;;;11.50;8.45;;;;;;;-1.83;70.42;146877.47;5042002;28;20036;-64
2023/02/06 01:27:30;;;;;;;10.73;7.68;;;;;;;-1.77;71.26;146892.72;5042168;28;20286;-64
2023/02/06 01:29:56;;;;;;;10.85;7.57;;;;;;;-1.62;71.94;146929.50;5046140;28;20025;-65
2023/02/06 01:32:21;;;;;;;13.40;8.02;;;;;;;-1.62;71.86;146928.25;5042620;28;20037;-65
2023/02/06 01:34:47;;;;;;;11.57;7.95;;;;;;;-1.76;71.01;146895.22;5061435;28;20214;-65
2023/02/06 01:37:13;;;;;;;12.00;8.55;;;;;;;-1.75;70.74;146896.53;5046204;28;20041;-65
2023/02/06 01:39:38;;;;;;;11.32;8.07;;;;;;;-1.78;70.82;146888.88;5041865;28;20035;-65
2023/02/06 01:42:04;;;;;;;9.32;6.90;;;;;;;-1.71;71.16;146906.69;5046560;28;20025;-65
2023/02/06 01:44:31;;;;;;;11.40;7.95;;;;;;;-1.64;71.65;146924.47;5061446;28;20044;-65
2023/02/06 01:46:57;;;;;;;8.45;6.70;;;;;;;-1.78;70.46;146890.16;5041675;28;20047;-64
2023/02/06 01:49:26;;;;;;;9.15;6.95;;;;;;;-1.84;70.51;146873.66;5011558;28;20322;-65
2023/02/06 01:52:05;;;;;;;9.60;7.00;;;;;;;-1.95;70.78;146847.03;5021786;28;20041;-64
2023/02/06 01:54:30;;;;;;;7.78;6.07;;;;;;;-1.96;70.37;146845.72;5022299;28;20025;-65
2023/02/06 01:57:01;;;;;;;8.60;6.13;;;;;;;-1.91;70.17;146858.44;5017629;28;20085;-66
2023/02/06 01:59:27;;;;;;;8.00;6.13;;;;;;;-1.86;69.70;146868.59;5022154;28;20330;-65
2023/02/06 02:01:52;;;;;;;9.85;7.32;;;;;;;-1.98;70.94;146840.69;5019646;28;20040;-65
2023/02/06 02:04:21;;;;;;;7.38;6.22;;;;;;;-2.13;70.69;146803.84;5022192;28;20021;-65
2023/02/06 02:06:59;;;;;;;8.38;5.95;;;;;;;-2.21;70.35;146783.53;5021159;28;20251;-65
2023/02/06 02:09:25;;;;;;;10.45;6.95;;;;;;;-2.09;71.33;146812.75;5022155;28;20029;-65
2023/02/06 02:11:51;;;;;;;9.00;6.60;;;;;;;-2.05;70.85;146821.59;5021764;28;20049;-65
2023/02/06 02:14:17;;;;;;;7.70;6.43;;;;;;;-1.83;70.90;146877.47;5022089;28;20033;-66
2023/02/06 02:17:11;;;;;;;10.80;7.20;;;;;;;-1.91;70.89;146857.13;5001793;28;20038;-65
2023/02/06 02:20:25;;;;;;;8.38;6.60;;;;;;;-1.87;70.34;146867.28;5039440;28;20096;-66
2023/02/06 02:23:09;;;;;;;9.65;6.82;;;;;;;-2.09;70.65;146814.00;5026603;28;20084;-66
2023/02/06 02:26:02;;;;;;;9.63;6.93;;;;;;;-1.95;70.92;146847.03;5038862;28;20337;-66
2023/02/06 02:28:36;;;;;;;7.93;6.00;;;;;;;-2.18;70.76;146789.88;5021253;28;20381;-65
2023/02/06 02:31:13;;;;;;;8.07;6.18;;;;;;;-2.15;70.60;146798.78;5007406;28;20218;-65
2023/02/06 02:34:03;;;;;;;8.40;6.63;;;;;;;-2.19;69.28;146787.38;5020688;28;20022;-66
2023/02/06 02:36:55;;;;;;;7.78;6.60;;;;;;;-2.10;70.48;146810.19;5008680;28;20080;-65
2023/02/06 02:39:28;;;;;;;8.85;6.43;;;;;;;-2.15;69.98;146797.50;4998820;28;20053;-65
2023/02/06 02:42:17;;;;;;;8.75;6.75;;;;;;;-2.33;70.75;146753.13;5021366;28;20075;-64
2023/02/06 02:44:51;;;;;;;8.85;6.45;;;;;;;-2.26;72.46;146772.13;5023382;28;20044;-65
2023/02/06 02:47:25;;;;;;;8.40;6.40;;;;;;;-2.29;70.70;146763.28;5025622;28;20029;-66
2023/02/06 02:49:51;;;;;;;7.18;6.38;;;;;;;-2.40;71.42;146735.34;5037204;28;20049;-65
2023/02/06 02:52:18;;;;;;;7.35;6.07;;;;;;;-2.32;70.79;146755.66;5041199;28;20090;-64
2023/02/06 02:54:43;;;;;;;7.95;6.07;;;;;;;-2.17;70.96;146792.44;5023815;28;20032;-64
2023/02/06 02:57:18;;;;;;;6.97;5.80;;;;;;;-2.21;71.57;146782.28;5040943;28;20037;-64
2023/02/06 02:59:46;;;;;;;7.72;5.80;;;;;;;-2.20;70.73;146786.09;5041223;28;20096;-64
2023/02/06 03:02:18;;;;;;;7.65;5.57;;;;;;;-2.45;70.78;146723.94;5044360;28;20034;-64
2023/02/06 03:04:48;;;;;;;8.30;5.97;;;;;;;-2.36;71.09;146746.75;5045023;28;20025;-64
2023/02/06 03:07:29;;;;;;;7.90;6.10;;;;;;;-2.24;71.29;146775.94;5044621;28;20318;-64
2023/02/06 03:10:13;;;;;;;8.37;6.07;;;;;;;-2.24;71.20;146774.69;5044919;28;20133;-64
2023/02/06 03:13:06;;;;;;;7.50;5.35;;;;;;;-2.28;71.29;146767.06;5044867;28;20085;-65
2023/02/06 03:15:43;;;;;;;6.53;5.20;;;;;;;-2.26;71.45;146770.88;5044298;28;20071;-65
2023/02/06 03:18:16;;;;;;;7.70;5.28;;;;;;;-2.33;70.11;146753.13;5026680;28;20140;-64
2023/02/06 03:20:45;;;;;;;6.53;5.13;;;;;;;-2.69;70.62;146665.56;5045258;28;20033;-65
2023/02/06 03:23:16;;;;;;;7.32;5.22;;;;;;;-2.68;71.29;146666.84;5064466;28;20269;-66
2023/02/06 03:25:44;;;;;;;6.18;4.53;;;;;;;-2.73;71.64;146655.44;5047155;28;20080;-65
2023/02/06 03:28:17;;;;;;;5.88;4.68;;;;;;;-2.77;70.93;146645.28;5044681;28;20323;-64
2023/02/06 03:30:47;;;;;;;5.93;5.00;;;;;;;-2.55;71.06;146698.53;5044290;28;20036;-65
2023/02/06 03:33:18;;;;;;;7.03;5.60;;;;;;;-2.73;71.99;146655.44;5044551;28;20029;-65
2023/02/06 03:35:45;;;;;;;7.73;5.53;;;;;;;-2.53;72.00;146704.91;5044303;28;20037;-64
2023/02/06 03:38:11;;;;;;;7.18;5.15;;;;;;;-2.67;72.38;146670.63;5044353;28;20049;-64
2023/02/06 03:40:39;;;;;;;5.10;4.55;;;;;;;-2.90;71.98;146612.31;5044540;28;20061;-65
2023/02/06 03:43:07;;;;;;;6.93;5.63;;;;;;;-2.58;72.61;146692.19;5026335;28;20032;-65
2023/02/06 03:45:35;;;;;;;6.38;4.97;;;;;;;-2.60;72.48;146687.13;5043553;28;20030;-66
2023/02/06 03:48:06;;;;;;;6.60;5.32;;;;;;;-2.58;72.91;146690.94;5043923;28;20078;-68
2023/02/06 03:50:34;;;;;;;7.38;5.45;;;;;;;-2.61;72.12;146684.59;5043920;28;20100;-67
2023/02/06 03:53:01;;;;;;;6.55;5.18;;;;;;;-2.86;73.38;146622.47;5043941;28;20053;-66
2023/02/06 03:55:27;;;;;;;7.30;5.30;;;;;;;-2.71;73.33;146659.22;5043763;28;20035;-65
2023/02/06 03:58:02;;;;;;;8.10;5.85;;;;;;;-2.77;73.23;146645.28;5054557;28;20048;-66
2023/02/06 04:00:30;;;;;;;9.88;6.25;;;;;;;-2.73;73.46;146655.44;5045773;28;20025;-66
2023/02/06 04:02:57;;;;;;;6.47;5.22;;;;;;;-2.86;73.63;146623.72;5043541;28;20084;-65
2023/02/06 04:05:23;;;;;;;8.45;5.57;;;;;;;-2.87;73.36;146619.91;5043047;28;20255;-65
2023/02/06 04:07:48;;;;;;;6.18;4.82;;;;;;;-2.87;73.78;146619.91;5043838;28;20037;-66
2023/02/06 04:10:14;;;;;;;8.98;6.00;;;;;;;-2.95;74.23;146600.88;5043688;28;20040;-65
2023/02/06 04:12:40;;;;;;;8.63;6.05;;;;;;;-2.86;74.97;146623.72;5042784;28;20025;-65
2023/02/06 04:15:06;;;;;;;7.45;5.47;;;;;;;-2.78;74.24;146642.72;5043582;28;20325;-67
2023/02/06 04:17:31;;;;;;;6.30;5.05;;;;;;;-3.03;73.78;146581.88;5025541;28;20056;-68
2023/02/06 04:19:57;;;;;;;7.75;5.20;;;;;;;-3.09;74.10;146565.38;5043447;28;20137;-66
2023/02/06 04:22:23;;;;;;;7.85;5.25;;;;;;;-2.93;74.54;146604.72;5043512;28;20116;-67
2023/02/06 04:24:48;;;;;;;6.35;4.85;;;;;;;-2.95;74.23;146602.19;5043531;28;20033;-66
2023/02/06 04:27:14;;;;;;;7.30;5.25;;;;;;;-2.98;74.18;146593.28;5043121;28;20051;-66
2023/02/06 04:29:40;;;;;;;6.85;5.68;;;;;;;-2.87;74.60;146621.19;5043657;28;20081;-66
2023/02/06 04:32:05;;;;;;;6.07;5.03;;;;;;;-2.75;73.51;146650.38;5045389;28;20201;-67
2023/02/06 04:34:33;;;;;;;6.25;4.90;;;;;;;-2.77;73.26;146645.28;5025491;28;20093;-65
2023/02/06 04:36:59;;;;;;;7.18;5.20;;;;;;;-2.78;73.21;146642.72;5042983;28;20036;-66
2023/02/06 04:39:25;;;;;;;6.65;5.20;;;;;;;-2.73;73.36;146655.44;5042724;28;20045;-66
2023/02/06 04:41:51;;;;;;;5.15;4.20;;;;;;;-2.60;73.35;146687.13;5042612;28;20317;-66
2023/02/06 04:44:17;;;;;;;5.75;4.85;;;;;;;-2.71;72.70;146659.22;5043178;28;20018;-66
2023/02/06 04:46:42;;;;;;;5.45;4.35;;;;;;;-2.57;72.06;146693.50;5048671;28;20111;-66
2023/02/06 04:49:09;;;;;;;9.05;5.65;;;;;;;-2.62;71.61;146683.34;5042369;28;20098;-65
2023/02/06 04:51:35;;;;;;;5.45;4.65;;;;;;;-2.61;71.96;146685.88;5024982;28;20041;-66
2023/02/06 04:54:02;;;;;;;6.45;4.85;;;;;;;-2.69;72.57;146665.56;5042624;28;20055;-65
2023/02/06 04:56:28;;;;;;;6.93;4.95;;;;;;;-2.63;73.14;146679.53;5042604;28;20092;-65
2023/02/06 04:58:53;;;;;;;5.95;5.10;;;;;;;-2.60;72.57;146688.38;5042613;28;20191;-65
2023/02/06 05:01:19;;;;;;;6.25;4.68;;;;;;;-2.53;72.23;146704.91;5041824;28;20033;-65
2023/02/06 05:03:46;;;;;;;5.90;4.80;;;;;;;-2.54;72.90;146702.34;5042647;28;20128;-66
2023/02/06 05:06:12;;;;;;;7.05;4.72;;;;;;;-2.51;72.01;146710.00;5042288;28;20037;-65
2023/02/06 05:08:37;;;;;;;5.35;4.82;;;;;;;-2.52;72.38;146706.13;5042191;28;20213;-66
2023/02/06 05:11:03;;;;;;;5.82;4.82;;;;;;;-2.52;72.39;146707.44;5042272;28;20033;-65
2023/02/06 05:13:29;;;;;;;6.82;4.70;;;;;;;-2.61;71.78;146684.59;5042498;28;20515;-65
2023/02/06 05:15:56;;;;;;;5.57;4.75;;;;;;;-2.69;71.57;146664.34;5042200;28;20036;-66
2023/02/06 05:18:23;;;;;;;5.38;4.75;;;;;;;-2.79;72.34;146641.47;5024909;28;20037;-64
2023/02/06 05:20:48;;;;;;;6.90;4.78;;;;;;;-2.59;72.44;146689.69;5042122;28;20029;-66
2023/02/06 05:23:14;;;;;;;5.97;5.15;;;;;;;-2.67;72.16;146669.38;5024148;28;20163;-65
2023/02/06 05:25:40;;;;;;;6.43;4.75;;;;;;;-2.64;71.87;146676.97;5042303;28;20098;-65
2023/02/06 05:28:06;;;;;;;5.72;4.80;;;;;;;-2.63;71.24;146680.78;5041347;28;20033;-66
2023/02/06 05:30:35;;;;;;;6.05;4.55;;;;;;;-2.60;71.77;146688.38;5007627;28;20198;-66
2023/02/06 05:33:01;;;;;;;4.13;3.58;;;;;;;-2.66;68.35;146671.94;5042127;28;20037;-65
2023/02/06 05:35:27;;;;;;;5.45;4.10;;;;;;;-2.66;69.33;146673.19;5024192;28;20137;-65
2023/02/06 05:37:52;;;;;;;5.50;3.90;;;;;;;-2.78;67.99;146642.72;5042075;28;20083;-65
2023/02/06 05:40:18;;;;;;;5.28;3.80;;;;;;;-2.75;67.82;146650.38;5042128;28;20087;-65
2023/02/06 05:42:44;;;;;;;4.47;3.83;;;;;;;-2.70;68.33;146663.03;5041439;28;20376;-66
2023/02/06 05:45:09;;;;;;;4.93;3.67;;;;;;;-2.61;68.29;146684.59;5041236;28;20029;-65
2023/02/06 05:47:35;;;;;;;3.72;3.28;;;;;;;-2.65;67.32;146675.72;5041133;28;20048;-65
2023/02/06 05:50:00;;;;;;;4.05;3.47;;;;;;;-2.67;67.19;146670.63;5046100;28;20041;-67
2023/02/06 05:52:26;;;;;;;4.32;3.53;;;;;;;-2.70;65.82;146663.03;5055738;28;20113;-66
2023/02/06 05:54:52;;;;;;;4.43;3.58;;;;;;;-2.64;66.18;146678.28;5058144;28;20097;-65
2023/02/06 05:57:17;;;;;;;3.30;2.90;;;;;;;-2.59;65.80;146689.69;5041434;28;20036;-65
2023/02/06 05:59:43;;;;;;;3.88;3.00;;;;;;;-2.55;65.10;146698.53;5041560;28;20286;-65
2023/02/06 06:02:08;;;;;;;4.10;3.20;;;;;;;-2.55;65.20;146698.53;5040986;28;20029;-65
2023/02/06 06:04:34;;;;;;;4.07;3.10;;;;;;;-2.53;65.59;146704.91;5023881;28;20022;-65
2023/02/06 06:07:00;;;;;;;3.45;2.80;;;;;;;-2.52;64.55;146706.13;5056727;28;20091;-65
2023/02/06 06:09:25;;;;;;;4.13;3.38;;;;;;;-2.64;63.90;146678.28;5040991;28;20098;-66
2023/02/06 06:11:51;;;;;;;4.10;3.28;;;;;;;-2.62;64.44;146683.34;5041344;28;20072;-65
2023/02/06 06:14:17;;;;;;;2.80;2.50;;;;;;;-2.62;63.87;146682.09;5041984;28;20104;-65
2023/02/06 06:16:42;;;;;;;3.40;3.03;;;;;;;-2.63;63.02;146680.78;5020816;28;20373;-65
2023/02/06 06:19:08;;;;;;;3.90;3.20;;;;;;;-2.74;65.01;146652.88;5043676;28;20296;-64
2023/02/06 06:21:34;;;;;;;4.00;3.38;;;;;;;-2.73;64.70;146654.19;5050367;28;20336;-65
2023/02/06 06:24:01;;;;;;;4.53;3.63;;;;;;;-2.74;66.40;146651.63;5040950;28;20110;-65
2023/02/06 06:26:26;;;;;;;4.53;3.50;;;;;;;-2.64;66.03;146678.28;5041280;28;20029;-66
2023/02/06 06:28:52;;;;;;;4.65;3.88;;;;;;;-2.54;66.54;146701.09;5041601;28;20044;-65
2023/02/06 06:31:18;;;;;;;5.25;4.18;;;;;;;-2.55;66.61;146698.53;5041286;28;20268;-65
2023/02/06 06:33:44;;;;;;;4.45;3.67;;;;;;;-2.48;65.00;146716.28;5041443;28;20040;-65
2023/02/06 06:36:11;;;;;;;4.13;3.50;;;;;;;-2.56;64.68;146697.28;5042958;28;20025;-66
2023/02/06 06:38:37;;;;;;;5.47;3.88;;;;;;;-2.67;65.03;146669.38;5045551;28;20041;-66
2023/02/06 06:41:03;;;;;;;4.85;3.75;;;;;;;-2.58;66.48;146690.94;5044695;28;20533;-65
2023/02/06 06:43:29;;;;;;;3.28;2.90;;;;;;;-2.55;64.23;146698.53;5045291;28;20029;-66
2023/02/06 06:45:55;;;;;;;4.30;3.30;;;;;;;-2.68;63.49;146668.13;5045215;28;20033;-66
2023/02/06 06:48:21;;;;;;;3.72;3.00;;;;;;;-2.64;64.21;146678.28;5045277;28;20100;-65
2023/02/06 06:50:48;;;;;;;4.00;3.28;;;;;;;-2.68;64.27;146666.84;5045205;28;20037;-66
2023/02/06 06:53:15;;;;;;;3.67;3.17;;;;;;;-2.66;63.90;146673.19;5025308;28;20042;-66
2023/02/06 06:55:40;;;;;;;4.53;3.65;;;;;;;-2.61;63.77;146685.88;5040594;28;20576;-66
2023/02/06 06:58:06;;;;;;;4.10;3.63;;;;;;;-2.62;64.85;146682.09;5045045;28;20067;-66
2023/02/06 07:00:31;;;;;;;5.10;3.38;;;;;;;-2.60;63.72;146688.38;5044591;28;20029;-65
2023/02/06 07:02:57;;;;;;;4.40;3.78;;;;;;;-2.98;63.72;146594.56;5044034;28;20048;-65
2023/02/06 07:05:23;;;;;;;5.93;3.95;;;;;;;-3.02;64.31;146583.13;5045180;28;20033;-65
2023/02/06 07:07:48;;;;;;;4.18;3.60;;;;;;;-2.92;64.79;146607.22;5043788;28;20274;-66
2023/02/06 07:10:14;;;;;;;4.32;3.72;;;;;;;-2.68;65.25;146666.84;5044811;28;20041;-65
2023/02/06 07:12:40;;;;;;;5.13;4.22;;;;;;;-2.59;65.64;146689.69;5044578;28;20057;-66
2023/02/06 07:15:06;;;;;;;5.97;4.65;;;;;;;-2.52;64.76;146706.13;5043205;28;20064;-65
2023/02/06 07:17:32;;;;;;;5.25;4.13;;;;;;;-2.49;65.14;146715.03;5043180;28;20025;-66
2023/02/06 07:19:58;;;;;;;5.30;4.63;;;;;;;-2.38;65.23;146740.41;5043279;28;20221;-64
2023/02/06 07:22:24;;;;;;;4.57;4.13;;;;;;;-2.51;64.70;146710.00;5041025;28;20348;-64
2023/02/06 07:24:50;;;;;;;5.45;4.63;;;;;;;-2.47;65.02;146720.09;5043220;28;20052;-66
2023/02/06 07:27:16;;;;;;;4.80;4.20;;;;;;;-2.52;64.34;146707.44;5044454;28;20021;-65
2023/02/06 07:29:42;;;;;;;5.25;4.13;;;;;;;-2.47;64.30;146718.84;5042615;28;20040;-66
2023/02/06 07:32:08;;;;;;;5.57;4.82;;;;;;;-2.36;65.27;146745.50;5008727;28;20029;-66
2023/02/06 07:34:34;;;;;;;5.30;4.22;;;;;;;-2.32;64.91;146756.91;5044128;28;20053;-66
2023/02/06 07:37:00;;;;;;;6.00;4.75;;;;;;;-2.25;64.51;146773.44;5044117;28;20135;-65
2023/02/06 07:39:26;;;;;;;5.75;4.53;;;;;;;-2.22;65.20;146779.72;5044999;28;20030;-65
2023/02/06 07:41:51;;;;;;;5.68;4.82;;;;;;;-2.28;63.50;146767.06;5044424;28;20033;-66
2023/02/06 07:44:17;;;;;;;5.72;4.88;;;;;;;-2.19;63.97;146787.38;5043062;28;20021;-65
2023/02/06 07:46:43;;;;;;;5.82;4.70;;;;;;;-2.34;64.34;146750.56;5058461;28;20028;-67
2023/02/06 07:49:13;;;;;;;6.10;4.50;;;;;;;-2.31;65.19;146759.47;5030457;28;20037;-65
2023/02/06 07:51:41;;;;;;;6.13;4.43;;;;;;;-2.46;64.52;146722.66;5042614;28;20051;-65
2023/02/06 07:54:06;;;;;;;6.18;5.20;;;;;;;-2.23;64.95;146778.47;5042835;28;20037;-66
2023/02/06 07:56:32;;;;;;;5.40;4.80;;;;;;;-2.16;65.28;146796.25;5045984;28;20040;-65
2023/02/06 07:58:58;;;;;;;5.82;5.10;;;;;;;-2.32;64.27;146756.91;5025596;28;20025;-66
2023/02/06 08:01:24;;;;;;;6.53;4.95;;;;;;;-2.21;65.23;146782.28;5043166;28;20029;-66
2023/02/06 08:03:51;;;;;;;6.60;5.38;;;;;;;-2.52;64.21;146706.13;5043918;28;20205;-66
2023/02/06 08:06:17;;;;;;;6.72;5.47;;;;;;;-2.37;66.51;146744.22;5042566;28;20029;-66
2023/02/06 08:08:43;;;;;;;6.30;5.30;;;;;;;-2.33;65.09;146754.38;5009173;28;20032;-66
2023/02/06 08:11:12;;;;;;;5.88;5.22;;;;;;;-2.34;64.60;146751.81;5043403;28;20096;-66
2023/02/06 08:13:38;;;;;;;7.03;5.47;;;;;;;-2.14;65.02;146800.03;5043450;28;20028;-66
2023/02/06 08:16:10;;;;;;;6.25;5.07;;;;;;;-2.52;65.48;146706.13;5043401;28;20029;-66
2023/02/06 08:18:36;;;;;;;6.55;4.97;;;;;;;-2.28;63.88;146767.06;5043884;28;20340;-66
2023/02/06 08:21:04;;;;;;;6.10;4.75;;;;;;;-2.25;64.58;146773.44;5043315;28;20061;-66
2023/02/06 08:23:30;;;;;;;7.65;5.88;;;;;;;-2.27;65.44;146768.31;5043375;28;20504;-66
2023/02/06 08:26:12;;;;;;;6.90;5.60;;;;;;;-2.44;64.11;146727.75;5012902;28;20053;-66
2023/02/06 08:28:38;;;;;;;8.48;5.10;;;;;;;-2.43;65.57;146730.25;5057388;28;20309;-65
2023/02/06 08:31:16;;;;;;;8.23;5.97;;;;;;;-2.51;64.66;146708.69;5044981;28;20029;-66
2023/02/06 08:33:42;;;;;;;8.10;5.65;;;;;;;-2.45;65.04;146723.94;5043773;28;20028;-66
2023/02/06 08:36:09;;;;;;;8.07;5.93;;;;;;;-2.38;63.94;146741.72;5042394;28;20037;-68
2023/02/06 08:38:36;;;;;;;6.68;5.38;;;;;;;-2.52;64.71;146707.44;5043759;28;20210;-69
2023/02/06 08:41:03;;;;;;;7.85;5.47;;;;;;;-2.50;65.66;146712.50;5043810;28;20041;-67
2023/02/06 08:43:28;;;;;;;7.80;6.07;;;;;;;-2.55;64.93;146698.53;5042118;28;20045;-66
2023/02/06 08:45:58;;;;;;;8.88;6.13;;;;;;;-2.52;65.62;146706.13;5043367;28;20041;-67
2023/02/06 08:48:26;;;;;;;7.00;5.45;;;;;;;-2.53;64.73;146703.63;5021900;28;20038;-67
2023/02/06 08:51:01;;;;;;;8.55;6.43;;;;;;;-2.40;64.85;146735.34;5022436;28;20045;-67
2023/02/06 08:53:27;;;;;;;7.38;5.75;;;;;;;-2.40;64.27;146735.34;5023098;28;20087;-69
2023/02/06 08:56:08;;;;;;;6.72;5.75;;;;;;;-2.40;65.02;146736.59;5024046;28;20022;-67
2023/02/06 08:58:34;;;;;;;7.82;6.35;;;;;;;-2.82;63.87;146633.88;5022424;28;20071;-66
2023/02/06 09:01:15;;;;;;;9.15;6.60;;;;;;;-2.87;66.02;146619.91;5005960;28;20076;-67
2023/02/06 09:03:42;;;;;;;8.35;6.30;;;;;;;-2.48;66.87;146716.28;5021739;28;20045;-66
2023/02/06 09:06:08;;;;;;;8.10;6.45;;;;;;;-2.73;66.40;146654.19;5019345;28;20105;-67
2023/02/06 09:08:34;;;;;;;7.85;6.35;;;;;;;-2.85;65.30;146626.28;5022491;28;20198;-67
2023/02/06 09:11:12;;;;;;;7.85;6.20;;;;;;;-2.83;66.23;146630.06;5022459;28;20032;-67
2023/02/06 09:13:38;;;;;;;8.32;5.72;;;;;;;-2.75;65.91;146650.38;5021946;28;20025;-67
2023/02/06 09:16:04;;;;;;;7.80;6.18;;;;;;;-2.54;66.08;146702.34;5020929;28;20218;-68
2023/02/06 09:18:30;;;;;;;9.43;6.25;;;;;;;-2.39;66.33;146739.16;5022028;28;20026;-67
2023/02/06 09:21:14;;;;;;;8.18;5.65;;;;;;;-2.58;65.85;146690.94;5020847;28;20040;-67
2023/02/06 09:23:42;;;;;;;8.82;5.20;;;;;;;-2.58;66.47;146692.19;4987215;28;20360;-67
2023/02/06 09:26:32;;;;;;;6.63;5.57;;;;;;;-2.70;66.44;146661.78;4988826;28;20033;-66
2023/02/06 09:28:59;;;;;;;8.02;5.50;;;;;;;-2.44;66.31;146727.75;4987589;28;20402;-67
2023/02/06 09:31:29;;;;;;;8.20;6.22;;;;;;;-2.35;65.35;146749.31;4988502;28;20104;-67
2023/02/06 09:33:55;;;;;;;5.95;5.35;;;;;;;-2.41;65.54;146732.81;5000022;28;20018;-66
2023/02/06 09:36:21;;;;;;;7.00;5.43;;;;;;;-2.35;65.20;146748.00;5020514;28;20029;-67
2023/02/06 09:38:50;;;;;;;8.43;6.45;;;;;;;-2.30;66.38;146760.72;5008821;28;20072;-67
2023/02/06 09:41:30;;;;;;;8.52;6.68;;;;;;;-2.73;65.49;146655.44;5022926;28;20045;-66
2023/02/06 09:44:14;;;;;;;8.05;6.00;;;;;;;-2.92;66.72;146607.22;5019817;28;20067;-66
2023/02/06 09:46:54;;;;;;;7.90;6.32;;;;;;;-2.64;66.51;146676.97;5020099;28;20098;-67
2023/02/06 09:49:29;;;;;;;7.38;6.15;;;;;;;-2.46;66.40;146721.41;5032238;28;20041;-67
2023/02/06 09:52:25;;;;;;;8.70;6.50;;;;;;;-2.71;64.89;146659.22;5038982;28;20049;-68
2023/02/06 09:55:00;;;;;;;7.88;6.13;;;;;;;-2.59;66.50;146689.69;5042661;28;20045;-66
2023/02/06 09:57:31;;;;;;;8.75;7.13;;;;;;;-2.37;66.93;146744.22;5007430;28;20044;-67
2023/02/06 09:59:59;;;;;;;;;;;;;;;-2.23;66.48;146778.47;5007830;28;20026;-66
2023/02/06 10:02:30;;;;;;;9.00;6.72;;;;;;;-2.15;67.46;146798.78;5041418;28;19912;-68
2023/02/06 10:04:58;;;;;;;7.22;6.50;;;;;;;-2.28;64.74;146767.06;5040285;28;20025;-66
2023/02/06 10:07:46;;;;;;;7.53;6.28;;;;;;;-2.14;66.68;146800.03;5040870;28;20037;-66
2023/02/06 10:10:24;;;;;;;8.02;6.65;;;;;;;-2.03;66.19;146827.97;5039283;28;20037;-66
2023/02/06 10:13:22;;;;;;;8.13;7.00;;;;;;;-1.93;65.66;146853.34;5022190;28;20276;-67
2023/02/06 10:15:52;;;;;;;12.00;7.72;;;;;;;-1.98;65.63;146839.38;5022818;28;20101;-67
2023/02/06 10:18:43;;;;;;;9.55;7.88;;;;;;;-1.95;65.21;146847.03;5041199;28;20182;-66
2023/02/06 10:21:34;;;;;;;11.52;7.97;;;;;;;-1.98;64.59;146840.69;5040234;28;20032;-67
2023/02/06 10:24:24;;;;;;;9.95;6.93;;;;;;;-1.87;65.86;146867.28;5039344;28;20033;-66
2023/02/06 10:26:52;;;;;;;10.00;7.25;;;;;;;-2.04;65.99;146825.41;5041454;28;20388;-67
2023/02/06 10:29:30;;;;;;;9.02;7.47;;;;;;;-1.98;66.15;146840.69;5006729;28;20021;-66
2023/02/06 10:32:12;;;;;;;12.98;7.22;;;;;;;-2.09;65.50;146812.75;5036638;28;20045;-65
2023/02/06 10:34:54;;;;;;;8.13;6.75;;;;;;;-1.99;65.83;146836.88;5039211;28;20017;-65
2023/02/06 10:37:36;;;;;;;9.80;7.15;;;;;;;-2.26;65.61;146772.13;5036573;28;20045;-67
2023/02/06 10:40:23;;;;;;;8.93;7.03;;;;;;;-1.97;66.31;146841.94;5038294;28;20052;-67
2023/02/06 10:43:00;;;;;;;10.38;7.20;;;;;;;-2.08;66.33;146816.56;5042385;28;20189;-67
2023/02/06 10:45:38;;;;;;;7.97;6.82;;;;;;;-1.96;66.23;146844.47;5041333;28;20033;-67
2023/02/06 10:48:30;;;;;;;9.07;7.45;;;;;;;-1.95;64.86;146847.03;5039374;28;20029;-66
2023/02/06 10:51:17;;;;;;;9.55;7.20;;;;;;;-1.97;67.47;146843.19;5040194;28;20038;-66
2023/02/06 10:54:10;;;;;;;9.27;6.90;;;;;;;-2.28;65.46;146767.06;5038557;28;20057;-67
2023/02/06 10:56:40;;;;;;;9.98;7.55;;;;;;;-2.11;65.95;146807.66;5041501;28;20064;-67
2023/02/06 10:59:24;;;;;;;10.30;7.85;;;;;;;-2.17;66.31;146793.69;5040665;28;20233;-66
2023/02/06 11:02:01;;;;;;;10.82;7.68;;;;;;;-2.12;66.30;146805.16;5021414;28;20038;-66
2023/02/06 11:04:34;;;;;;;9.88;7.53;;;;;;;-2.11;65.25;146808.94;5032541;28;20088;-66
2023/02/06 11:07:02;;;;;;;9.55;7.45;;;;;;;-2.06;65.52;146820.34;5040758;28;20320;-67
2023/02/06 11:09:29;;;;;;;12.82;7.85;;;;;;;-2.14;65.83;146800.03;5041334;28;20048;-67
2023/02/06 11:11:57;;;;;;;8.13;7.03;;;;;;;-2.01;65.89;146833.06;5020264;28;20256;-66
2023/02/06 11:14:30;;;;;;;10.00;7.65;;;;;;;-2.23;65.87;146777.22;5040342;28;20091;-67
2023/02/06 11:17:00;;;;;;;10.35;8.00;;;;;;;-2.10;67.06;146811.44;5041262;28;20064;-66
2023/02/06 11:19:30;;;;;;;11.88;7.57;;;;;;;-2.21;67.50;146782.28;5041309;28;20034;-66
2023/02/06 11:22:11;;;;;;;9.37;7.60;;;;;;;-2.03;67.62;146826.72;5041714;28;20061;-66
2023/02/06 11:24:38;;;;;;;10.25;8.35;;;;;;;-2.00;66.92;146834.31;5044776;28;20211;-67
2023/02/06 11:27:14;;;;;;;11.82;8.60;;;;;;;-2.00;66.94;146835.56;5026765;28;20186;-66
2023/02/06 11:29:48;;;;;;;10.48;8.38;;;;;;;-2.03;65.88;146826.72;5044437;28;20029;-65
2023/02/06 11:32:34;;;;;;;8.75;7.70;;;;;;;-2.39;67.36;146739.16;5044505;28;20044;-65
2023/02/06 11:35:05;;;;;;;11.70;8.05;;;;;;;-2.35;66.65;146749.31;5044240;28;20199;-66